Terminal Aerodrome Forecast
Issued by NWS

Home | Current Version | Previous Version | Graphics & Text | Print | Product List | Glossary On
Versions: 1 2 3 4 5 6 7 8 9 10 11 12 13 14
000
FTUS43 KBIS 300915 AAA
TAFMOT
TAF AMD
KMOT 300915Z 3009/0106 07004KT P6SM SKC WS003/13036KT
     FM301100 01004KT P6SM SKC
     FM301700 05013KT P6SM SKC
     FM010100 04009KT P6SM SKC=

USA.gov is the U.S. government's official web portal to all federal, state and local government web resources and services.